Time;durP1;ratioP1;P1;durP2;ratioP2;P2;SDS_P1;SDS_P2;PMS_P1;PMS_P2;Temp;Humidity;BMP_temperature;BMP_pressure;BME280_temperature;BME280_humidity;BME280_pressure;Samples;Min_cycle;Max_cycle;Signal;HPM_P1;HPM_P2
2024/02/03 00:00:08;;;;;;;0.65;0.65;;;2.30;99.90;;;;;;5072817;28;20224;-75
2024/02/03 00:02:34;;;;;;;0.70;0.70;;;2.30;99.90;;;;;;5054681;28;20219;-75
2024/02/03 00:05:00;;;;;;;0.80;0.80;;;2.20;99.90;;;;;;5072771;28;20671;-75
2024/02/03 00:07:26;;;;;;;0.60;0.60;;;2.20;99.90;;;;;;5072566;28;20189;-75
2024/02/03 00:09:52;;;;;;;0.70;0.70;;;2.10;99.90;;;;;;5072756;28;20195;-76
2024/02/03 00:12:26;;;;;;;0.63;0.63;;;2.20;99.90;;;;;;5072512;28;20598;-75
2024/02/03 00:14:52;;;;;;;0.73;0.73;;;2.30;99.90;;;;;;5072717;28;20254;-76
2024/02/03 00:17:17;;;;;;;0.60;0.60;;;2.40;99.90;;;;;;5072403;28;20193;-76
2024/02/03 00:20:08;;;;;;;0.70;0.70;;;2.40;99.90;;;;;;5072574;28;20188;-75
2024/02/03 00:22:34;;;;;;;0.60;0.60;;;2.40;99.90;;;;;;5072272;28;20623;-75
2024/02/03 00:25:00;;;;;;;0.77;0.77;;;2.50;99.90;;;;;;5072544;28;20275;-75
2024/02/03 00:27:26;;;;;;;0.60;0.60;;;2.50;99.90;;;;;;5072118;28;20216;-75
2024/02/03 00:29:51;;;;;;;0.70;0.70;;;2.50;99.90;;;;;;5072473;28;20216;-75
2024/02/03 00:32:17;;;;;;;0.73;0.73;;;2.50;99.90;;;;;;5071700;28;20197;-75
2024/02/03 00:34:44;;;;;;;0.60;0.60;;;2.50;99.90;;;;;;5072315;28;20189;-75
2024/02/03 00:37:10;;;;;;;0.80;0.80;;;2.60;99.90;;;;;;5073274;28;20185;-75
2024/02/03 00:39:40;;;;;;;0.68;0.68;;;2.60;99.90;;;;;;5072240;28;20193;-75
2024/02/03 00:42:06;;;;;;;0.60;0.60;;;2.70;99.90;;;;;;5072410;28;20676;-75
2024/02/03 00:44:32;;;;;;;0.60;0.60;;;2.60;99.90;;;;;;5072197;28;20193;-75
2024/02/03 00:46:57;;;;;;;0.50;0.50;;;2.60;99.90;;;;;;5072372;28;20193;-75
2024/02/03 00:49:23;;;;;;;0.68;0.68;;;2.50;99.90;;;;;;5072201;28;20215;-76
2024/02/03 00:51:49;;;;;;;0.50;0.50;;;2.50;99.90;;;;;;5072291;28;20217;-75
2024/02/03 00:54:14;;;;;;;0.70;0.70;;;2.50;99.90;;;;;;5072294;28;20586;-75
2024/02/03 00:56:40;;;;;;;0.65;0.65;;;2.60;99.90;;;;;;5072057;28;20260;-75
2024/02/03 00:59:06;;;;;;;0.77;0.77;;;2.60;99.90;;;;;;5072104;28;20209;-75
2024/02/03 01:01:32;;;;;;;0.60;0.60;;;2.60;99.90;;;;;;5071952;28;20192;-75
2024/02/03 01:03:58;;;;;;;0.80;0.80;;;2.70;99.90;;;;;;5054188;28;20291;-75
2024/02/03 01:06:23;;;;;;;0.60;0.60;;;2.90;99.90;;;;;;5071939;28;20264;-75
2024/02/03 01:08:49;;;;;;;0.60;0.60;;;2.80;99.90;;;;;;5072212;28;20204;-75
2024/02/03 01:11:15;;;;;;;0.73;0.73;;;2.70;99.90;;;;;;5071941;28;20204;-75
2024/02/03 01:13:40;;;;;;;0.80;0.80;;;2.60;99.90;;;;;;5072451;28;20676;-75
2024/02/03 01:16:06;;;;;;;0.70;0.70;;;2.70;99.90;;;;;;5072008;28;20303;-74
2024/02/03 01:18:32;;;;;;;0.63;0.63;;;2.70;99.90;;;;;;5071847;28;20212;-69
2024/02/03 01:20:58;;;;;;;0.60;0.60;;;2.70;99.90;;;;;;5072015;28;20197;-69
2024/02/03 01:23:23;;;;;;;0.60;0.60;;;2.60;99.90;;;;;;5071730;28;20197;-68
2024/02/03 01:25:49;;;;;;;0.60;0.60;;;2.50;99.90;;;;;;5071730;28;20539;-68
2024/02/03 01:28:15;;;;;;;0.80;0.80;;;2.50;99.90;;;;;;5071899;28;20185;-68
2024/02/03 01:30:41;;;;;;;0.70;0.70;;;2.40;99.90;;;;;;5071659;28;20224;-68
2024/02/03 01:33:07;;;;;;;0.80;0.80;;;2.40;99.90;;;;;;5072867;28;20220;-68
2024/02/03 01:35:33;;;;;;;4.93;1.17;;;2.40;99.90;;;;;;5053627;28;20193;-69
2024/02/03 01:37:58;;;;;;;0.82;0.82;;;2.50;99.90;;;;;;5071788;28;20232;-69
2024/02/03 01:40:27;;;;;;;2.38;1.42;;;2.40;99.90;;;;;;5071609;28;20200;-68
2024/02/03 01:43:07;;;;;;;0.60;0.60;;;2.40;99.90;;;;;;5091522;28;20191;-69
2024/02/03 01:45:33;;;;;;;0.60;0.60;;;2.50;99.90;;;;;;5095143;28;20195;-69
2024/02/03 01:47:59;;;;;;;3.60;2.60;;;2.60;99.90;;;;;;5095548;28;20561;-69
2024/02/03 01:50:26;;;;;;;0.63;0.63;;;2.50;99.90;;;;;;5095296;28;20188;-68
2024/02/03 01:52:52;;;;;;;0.60;0.60;;;2.40;99.90;;;;;;5095415;28;20192;-68
2024/02/03 01:55:19;;;;;;;0.70;0.70;;;2.30;99.90;;;;;;5105815;28;20300;-69
2024/02/03 01:57:45;;;;;;;0.70;0.70;;;2.30;99.90;;;;;;5115601;28;20678;-69
2024/02/03 02:00:12;;;;;;;0.70;0.70;;;2.30;99.90;;;;;;5115747;28;20651;-68
2024/02/03 02:02:38;;;;;;;0.65;0.65;;;2.30;99.90;;;;;;5115167;28;20279;-68
2024/02/03 02:05:04;;;;;;;1.65;1.55;;;2.30;99.90;;;;;;5115436;28;20690;-68
2024/02/03 02:07:30;;;;;;;0.70;0.70;;;2.20;99.90;;;;;;5115329;28;20286;-69
2024/02/03 02:09:55;;;;;;;0.82;0.82;;;2.10;99.90;;;;;;5115184;28;20274;-68
2024/02/03 02:12:21;;;;;;;0.60;0.60;;;2.10;99.90;;;;;;5114715;28;20204;-69
2024/02/03 02:14:48;;;;;;;0.60;0.60;;;2.00;99.90;;;;;;5115174;28;20188;-68
2024/02/03 02:17:14;;;;;;;0.80;0.80;;;2.00;99.90;;;;;;5115237;28;20561;-68
2024/02/03 02:19:40;;;;;;;0.60;0.60;;;2.00;99.90;;;;;;5115026;28;20663;-69
2024/02/03 02:22:05;;;;;;;0.63;0.63;;;1.90;99.90;;;;;;5115308;28;20197;-69
2024/02/03 02:24:31;;;;;;;0.60;0.60;;;2.00;99.90;;;;;;5114936;28;20190;-68
2024/02/03 02:26:57;;;;;;;0.60;0.60;;;1.90;99.90;;;;;;5114980;28;20651;-69
2024/02/03 02:29:22;;;;;;;0.60;0.60;;;1.90;99.90;;;;;;5113597;28;20192;-73
2024/02/03 02:31:48;;;;;;;0.75;0.75;;;2.00;99.90;;;;;;5094739;28;20267;-73
2024/02/03 02:34:14;;;;;;;0.60;0.60;;;2.10;99.90;;;;;;5094719;28;20200;-73
2024/02/03 02:36:40;;;;;;;0.60;0.60;;;2.20;99.90;;;;;;5094506;28;20203;-73
2024/02/03 02:39:05;;;;;;;0.70;0.70;;;2.30;99.90;;;;;;5094582;28;20767;-73
2024/02/03 02:41:32;;;;;;;0.65;0.65;;;2.50;99.90;;;;;;5094470;28;20188;-73
2024/02/03 02:43:57;;;;;;;0.70;0.70;;;2.50;99.90;;;;;;5076359;28;20192;-73
2024/02/03 02:46:26;;;;;;;0.70;0.70;;;2.30;99.90;;;;;;5094191;28;20199;-72
2024/02/03 02:48:53;;;;;;;0.60;0.60;;;2.30;99.90;;;;;;5094475;28;20192;-73
2024/02/03 02:51:19;;;;;;;0.63;0.63;;;2.40;99.90;;;;;;5094256;28;20192;-73
2024/02/03 02:53:44;;;;;;;0.73;0.73;;;2.40;99.90;;;;;;5076089;28;20200;-73
2024/02/03 02:56:12;;;;;;;0.70;0.70;;;2.30;99.90;;;;;;5075705;28;20228;-73
2024/02/03 02:58:37;;;;;;;0.70;0.70;;;2.20;99.90;;;;;;5073727;28;20251;-73
2024/02/03 03:01:04;;;;;;;0.73;0.73;;;2.10;99.90;;;;;;5056011;28;20246;-73
2024/02/03 03:03:29;;;;;;;0.60;0.60;;;2.00;99.90;;;;;;5073698;28;20695;-73
2024/02/03 03:05:57;;;;;;;0.75;0.75;;;1.90;99.90;;;;;;5055762;28;20193;-73
2024/02/03 03:08:25;;;;;;;0.70;0.70;;;1.90;99.90;;;;;;5073595;28;20691;-73
2024/02/03 03:10:51;;;;;;;0.70;0.70;;;2.10;99.90;;;;;;5079276;28;20188;-73
2024/02/03 03:13:17;;;;;;;0.70;0.70;;;2.20;99.90;;;;;;5094192;28;20215;-73
2024/02/03 03:16:01;;;;;;;0.70;0.70;;;2.20;99.90;;;;;;5093685;28;20659;-73
2024/02/03 03:18:27;;;;;;;0.70;0.70;;;2.10;99.90;;;;;;5093675;28;20212;-73
2024/02/03 03:20:53;;;;;;;0.70;0.70;;;2.10;99.90;;;;;;5093798;28;20195;-73
2024/02/03 03:23:18;;;;;;;0.70;0.70;;;2.20;99.90;;;;;;5093687;28;20234;-72
2024/02/03 03:25:44;;;;;;;0.60;0.60;;;2.60;99.90;;;;;;5093306;28;20192;-73
2024/02/03 03:28:13;;;;;;;0.60;0.60;;;2.70;99.90;;;;;;5093592;28;20207;-73
2024/02/03 03:30:38;;;;;;;0.60;0.60;;;2.60;99.90;;;;;;5093476;28;20231;-73
2024/02/03 03:33:19;;;;;;;0.52;0.52;;;2.60;99.90;;;;;;5093527;28;20234;-73
2024/02/03 03:35:44;;;;;;;8.38;1.23;;;2.50;99.90;;;;;;5093358;28;20585;-73
2024/02/03 03:38:13;;;;;;;0.60;0.60;;;2.60;99.90;;;;;;5093534;28;20230;-72
2024/02/03 03:40:44;;;;;;;0.70;0.70;;;2.60;99.90;;;;;;5093283;28;20610;-72
2024/02/03 03:43:10;;;;;;;0.60;0.60;;;2.50;99.90;;;;;;5093297;28;20199;-72
2024/02/03 03:45:38;;;;;;;0.55;0.55;;;2.30;99.90;;;;;;5074950;28;20192;-71
2024/02/03 03:48:04;;;;;;;0.70;0.70;;;2.30;99.90;;;;;;5093300;28;20200;-72
2024/02/03 03:50:30;;;;;;;0.60;0.60;;;2.30;99.90;;;;;;5093142;28;20547;-71
2024/02/03 03:52:56;;;;;;;0.70;0.70;;;2.30;99.90;;;;;;5093090;28;20188;-72
2024/02/03 03:55:21;;;;;;;0.60;0.60;;;2.30;99.90;;;;;;5085504;28;20235;-71
2024/02/03 03:57:47;;;;;;;0.60;0.60;;;2.30;99.90;;;;;;5113469;28;20219;-71
2024/02/03 04:00:13;;;;;;;0.52;0.52;;;2.30;99.90;;;;;;5112047;28;20193;-72
2024/02/03 04:02:39;;;;;;;0.70;0.70;;;2.20;99.90;;;;;;5104855;28;20322;-72
2024/02/03 04:05:06;;;;;;;0.60;0.60;;;2.10;99.90;;;;;;5113346;28;20627;-71
2024/02/03 04:07:32;;;;;;;0.60;0.60;;;2.00;99.90;;;;;;5112453;28;20201;-72
2024/02/03 04:09:57;;;;;;;0.60;0.60;;;2.00;99.90;;;;;;5113316;28;20262;-72
2024/02/03 04:12:23;;;;;;;0.77;0.77;;;1.90;99.90;;;;;;5113077;28;20202;-72
2024/02/03 04:14:49;;;;;;;0.80;0.80;;;1.90;99.90;;;;;;5112992;28;20187;-72
2024/02/03 04:17:15;;;;;;;0.60;0.60;;;1.90;99.90;;;;;;5113146;28;20266;-71
2024/02/03 04:19:41;;;;;;;0.55;0.55;;;1.80;99.90;;;;;;5112897;28;20244;-72
2024/02/03 04:22:12;;;;;;;0.63;0.63;;;1.80;99.90;;;;;;5112891;28;20187;-71
2024/02/03 04:24:38;;;;;;;0.80;0.80;;;1.80;99.90;;;;;;5112831;28;20194;-71
2024/02/03 04:27:04;;;;;;;0.70;0.70;;;1.90;99.90;;;;;;5112878;28;20670;-70
2024/02/03 04:29:30;;;;;;;0.70;0.70;;;1.90;99.90;;;;;;5112851;28;20183;-71
2024/02/03 04:31:56;;;;;;;0.63;0.63;;;1.90;99.90;;;;;;5113013;28;20535;-71
2024/02/03 04:34:21;;;;;;;0.70;0.70;;;2.10;99.90;;;;;;5112810;28;20191;-71
2024/02/03 04:36:47;;;;;;;0.60;0.60;;;2.20;99.90;;;;;;5112757;28;20270;-72
2024/02/03 04:39:13;;;;;;;0.70;0.70;;;2.30;99.90;;;;;;5112874;28;20235;-72
2024/02/03 04:41:39;;;;;;;0.60;0.60;;;2.40;99.90;;;;;;5112766;28;20279;-72
2024/02/03 04:44:05;;;;;;;0.75;0.75;;;2.30;99.90;;;;;;5112889;28;20195;-72
2024/02/03 04:46:31;;;;;;;0.70;0.70;;;2.20;99.90;;;;;;5112548;28;20188;-72
2024/02/03 04:48:57;;;;;;;0.70;0.70;;;2.10;99.90;;;;;;5112949;28;20195;-73
2024/02/03 04:51:23;;;;;;;0.70;0.70;;;1.90;99.90;;;;;;5112565;28;20187;-73
2024/02/03 04:53:49;;;;;;;0.70;0.70;;;1.80;99.90;;;;;;5094573;28;20654;-74
2024/02/03 04:56:14;;;;;;;0.70;0.70;;;1.80;99.90;;;;;;5094284;28;20263;-74
2024/02/03 04:58:40;;;;;;;0.68;0.68;;;1.80;99.90;;;;;;5092151;28;20215;-74
2024/02/03 05:01:06;;;;;;;0.70;0.70;;;1.80;99.90;;;;;;5092343;28;20187;-73
2024/02/03 05:03:32;;;;;;;0.80;0.80;;;1.80;99.90;;;;;;5084702;28;20201;-73
2024/02/03 05:06:03;;;;;;;0.70;0.70;;;1.70;99.90;;;;;;5072125;28;20223;-74
2024/02/03 05:08:29;;;;;;;0.75;0.75;;;1.60;99.90;;;;;;5071971;28;20684;-74
2024/02/03 05:14:16;;;;;;;0.70;0.70;;;1.50;99.90;;;;;;5072227;28;20199;-73
2024/02/03 05:16:42;;;;;;;0.70;0.70;;;1.50;99.90;;;;;;5071737;28;20193;-74
2024/02/03 05:19:09;;;;;;;1.63;1.35;;;1.60;99.90;;;;;;5084487;28;20269;-73
2024/02/03 05:21:36;;;;;;;0.55;0.55;;;1.60;99.90;;;;;;5095946;28;20663;-73
2024/02/03 05:24:02;;;;;;;0.80;0.80;;;1.60;99.90;;;;;;5096050;28;20199;-73
2024/02/03 05:26:27;;;;;;;0.70;0.70;;;1.70;99.90;;;;;;5095608;28;20345;-73
2024/02/03 05:28:53;;;;;;;0.77;0.77;;;1.70;99.90;;;;;;5096032;28;20559;-74
2024/02/03 05:31:22;;;;;;;0.77;0.77;;;1.70;99.90;;;;;;5095390;28;20200;-73
2024/02/03 05:33:47;;;;;;;0.80;0.80;;;1.70;99.90;;;;;;5095943;28;20597;-74
2024/02/03 05:36:13;;;;;;;0.70;0.70;;;1.70;99.90;;;;;;5077597;28;20207;-74
2024/02/03 05:38:39;;;;;;;0.70;0.70;;;1.70;99.90;;;;;;5095363;28;20216;-74
2024/02/03 05:41:07;;;;;;;0.60;0.60;;;1.60;99.90;;;;;;5095775;28;20192;-73
2024/02/03 05:43:33;;;;;;;0.80;0.80;;;1.60;99.90;;;;;;5095604;28;20717;-74
2024/02/03 05:45:58;;;;;;;0.60;0.60;;;1.80;99.90;;;;;;5095890;28;20188;-74
2024/02/03 05:48:25;;;;;;;0.65;0.65;;;1.70;99.90;;;;;;5095485;28;20207;-74
2024/02/03 05:50:51;;;;;;;0.80;0.80;;;1.70;99.90;;;;;;5095642;28;20185;-74
2024/02/03 05:53:17;;;;;;;0.60;0.60;;;1.70;99.90;;;;;;5095704;28;20195;-74
2024/02/03 05:55:42;;;;;;;0.70;0.70;;;1.70;99.90;;;;;;5095156;28;20289;-74
2024/02/03 05:58:08;;;;;;;0.68;0.68;;;1.70;99.90;;;;;;5077347;28;20230;-75
2024/02/03 06:00:34;;;;;;;0.70;0.70;;;1.70;99.90;;;;;;5093180;28;20191;-74
2024/02/03 06:03:00;;;;;;;0.70;0.70;;;1.60;99.90;;;;;;5095301;28;20223;-73
2024/02/03 06:05:26;;;;;;;0.63;0.63;;;1.70;99.90;;;;;;5095015;28;20636;-74
2024/02/03 06:07:52;;;;;;;0.77;0.77;;;1.60;99.90;;;;;;5095343;28;20199;-73
2024/02/03 06:10:18;;;;;;;0.63;0.63;;;1.60;99.90;;;;;;5095185;28;20275;-73
2024/02/03 06:12:43;;;;;;;0.75;0.75;;;1.60;99.90;;;;;;5094942;28;20271;-73
2024/02/03 06:15:09;;;;;;;0.70;0.70;;;1.60;99.90;;;;;;5094898;28;20274;-73
2024/02/03 06:17:35;;;;;;;0.80;0.80;;;1.60;99.90;;;;;;5094821;28;20283;-74
2024/02/03 06:20:00;;;;;;;0.68;0.68;;;1.70;99.90;;;;;;5095096;28;20242;-74
2024/02/03 06:22:26;;;;;;;0.80;0.80;;;1.70;99.90;;;;;;5094803;28;20184;-74
2024/02/03 06:24:52;;;;;;;0.80;0.80;;;1.80;99.90;;;;;;5094871;28;20192;-74
2024/02/03 06:27:20;;;;;;;0.70;0.70;;;1.80;99.90;;;;;;5094686;28;20184;-73
2024/02/03 06:29:45;;;;;;;0.73;0.73;;;1.80;99.90;;;;;;5094064;28;20710;-73
2024/02/03 06:32:11;;;;;;;0.65;0.65;;;2.00;99.90;;;;;;5094336;28;20188;-73
2024/02/03 06:34:37;;;;;;;0.70;0.70;;;2.00;99.90;;;;;;5094541;28;20613;-73
2024/02/03 06:37:05;;;;;;;0.70;0.70;;;1.90;99.90;;;;;;5094677;28;20216;-73
2024/02/03 06:39:31;;;;;;;0.70;0.70;;;1.80;99.90;;;;;;5094430;28;20750;-73
2024/02/03 06:41:56;;;;;;;0.70;0.70;;;1.80;99.90;;;;;;5094917;28;20271;-73
2024/02/03 06:44:22;;;;;;;0.82;0.82;;;1.80;99.90;;;;;;5094334;28;20199;-74
2024/02/03 06:46:48;;;;;;;0.60;0.60;;;1.70;99.90;;;;;;5094493;28;20192;-73
2024/02/03 06:49:13;;;;;;;0.70;0.70;;;1.60;99.90;;;;;;5094449;28;20768;-73
2024/02/03 06:51:39;;;;;;;0.70;0.70;;;1.60;99.90;;;;;;5094233;28;20219;-73
2024/02/03 06:54:05;;;;;;;0.60;0.60;;;1.60;99.90;;;;;;5094412;28;20196;-72
2024/02/03 06:56:31;;;;;;;0.90;0.90;;;1.70;99.90;;;;;;5093796;28;20201;-72
2024/02/03 06:58:56;;;;;;;0.70;0.70;;;1.70;99.90;;;;;;5094812;28;20202;-73
2024/02/03 07:01:22;;;;;;;0.80;0.80;;;1.60;99.90;;;;;;5094003;28;20196;-73
2024/02/03 07:03:48;;;;;;;0.80;0.80;;;1.60;99.90;;;;;;5094133;28;20188;-73
2024/02/03 07:06:14;;;;;;;0.65;0.65;;;1.70;99.90;;;;;;5075892;28;20715;-73
2024/02/03 07:08:39;;;;;;;0.80;0.80;;;1.60;99.90;;;;;;5094000;28;20288;-75
2024/02/03 07:11:06;;;;;;;0.80;0.80;;;1.60;99.90;;;;;;5093836;28;20656;-75
2024/02/03 07:13:32;;;;;;;0.70;0.70;;;1.70;99.90;;;;;;5093785;28;20227;-75
2024/02/03 07:15:58;;;;;;;0.80;0.80;;;1.70;99.90;;;;;;5093907;28;20184;-74
2024/02/03 07:18:24;;;;;;;0.77;0.77;;;1.70;99.90;;;;;;5093510;28;20210;-74
2024/02/03 07:20:49;;;;;;;0.60;0.60;;;1.70;99.90;;;;;;5093878;28;20188;-75
2024/02/03 07:23:15;;;;;;;0.80;0.80;;;1.70;99.90;;;;;;5093718;28;20242;-74
2024/02/03 07:25:41;;;;;;;0.80;0.80;;;1.70;99.90;;;;;;5075196;28;20659;-75
2024/02/03 07:28:07;;;;;;;0.77;0.77;;;1.80;99.90;;;;;;5093912;28;20196;-74
2024/02/03 07:30:33;;;;;;;0.70;0.70;;;1.90;99.90;;;;;;5075361;28;20211;-75
2024/02/03 07:33:01;;;;;;;0.70;0.70;;;1.90;99.90;;;;;;5093616;28;20265;-75
2024/02/03 07:35:29;;;;;;;0.70;0.70;;;1.90;99.90;;;;;;5093305;28;20198;-73
2024/02/03 07:37:55;;;;;;;0.70;0.70;;;1.80;99.90;;;;;;5093471;28;20265;-74
2024/02/03 07:40:21;;;;;;;0.80;0.80;;;1.90;99.90;;;;;;5075095;28;20659;-75
2024/02/03 07:42:46;;;;;;;0.75;0.75;;;2.00;99.90;;;;;;5092976;28;20550;-73
2024/02/03 07:45:12;;;;;;;0.77;0.77;;;2.00;99.90;;;;;;5093156;28;20557;-72
2024/02/03 07:47:38;;;;;;;0.70;0.70;;;2.00;99.90;;;;;;5093267;28;20790;-72
2024/02/03 07:50:04;;;;;;;0.60;0.60;;;2.00;99.90;;;;;;5093285;28;20734;-72
2024/02/03 07:52:30;;;;;;;0.60;0.60;;;2.00;99.90;;;;;;5084891;28;20272;-72
2024/02/03 07:54:55;;;;;;;1.30;1.13;;;2.00;99.90;;;;;;5072980;28;20259;-73
2024/02/03 07:57:21;;;;;;;0.60;0.60;;;2.00;99.90;;;;;;5072616;28;20197;-73
2024/02/03 07:59:47;;;;;;;0.70;0.70;;;2.10;99.90;;;;;;5072941;28;20237;-73
2024/02/03 08:02:12;;;;;;;0.60;0.60;;;2.00;99.90;;;;;;5072828;28;20200;-72
2024/02/03 08:04:38;;;;;;;0.80;0.80;;;2.10;99.90;;;;;;5072533;28;20196;-72
2024/02/03 08:07:04;;;;;;;0.70;0.70;;;2.10;99.90;;;;;;5076567;28;20196;-73
2024/02/03 08:09:29;;;;;;;0.70;0.70;;;2.20;99.90;;;;;;5092833;28;20196;-72
2024/02/03 08:11:56;;;;;;;0.73;0.73;;;2.20;99.90;;;;;;5092880;28;20200;-73
2024/02/03 08:14:22;;;;;;;0.70;0.70;;;2.40;99.90;;;;;;5092651;28;20200;-72
2024/02/03 08:16:48;;;;;;;0.73;0.73;;;2.40;99.90;;;;;;5074694;28;20252;-72
2024/02/03 08:19:15;;;;;;;0.70;0.70;;;2.40;99.90;;;;;;5092873;28;20614;-71
2024/02/03 08:21:40;;;;;;;0.70;0.70;;;2.50;99.90;;;;;;5092647;28;20184;-70
2024/02/03 08:24:06;;;;;;;0.70;0.70;;;2.60;99.90;;;;;;5092795;28;20322;-69
2024/02/03 08:26:32;;;;;;;0.73;0.73;;;2.70;99.90;;;;;;5092277;28;20192;-69
2024/02/03 08:28:57;;;;;;;0.60;0.60;;;2.80;99.90;;;;;;5092748;28;20185;-69
2024/02/03 08:31:23;;;;;;;0.90;0.90;;;3.20;99.90;;;;;;5092437;28;20199;-69
2024/02/03 08:33:49;;;;;;;0.70;0.70;;;3.20;99.90;;;;;;5092722;28;20196;-70
2024/02/03 08:36:14;;;;;;;0.60;0.60;;;3.10;99.90;;;;;;5092528;28;20275;-71
2024/02/03 08:38:40;;;;;;;0.60;0.60;;;3.00;99.90;;;;;;5092368;28;20210;-71
2024/02/03 08:41:09;;;;;;;0.60;0.60;;;3.00;99.90;;;;;;5092574;28;20276;-70
2024/02/03 08:43:35;;;;;;;0.60;0.60;;;3.00;99.90;;;;;;5092449;28;20561;-71
2024/02/03 08:46:01;;;;;;;0.90;0.90;;;3.10;99.90;;;;;;5092488;28;20252;-69
2024/02/03 08:48:27;;;;;;;0.70;0.70;;;3.10;99.90;;;;;;5085416;28;20682;-69
2024/02/03 08:50:53;;;;;;;0.60;0.60;;;3.20;99.90;;;;;;5072330;28;20275;-70
2024/02/03 08:53:18;;;;;;;0.70;0.70;;;3.20;99.90;;;;;;5054696;28;20296;-70
2024/02/03 08:55:44;;;;;;;0.80;0.80;;;3.30;99.90;;;;;;5076095;28;20239;-69
2024/02/03 08:58:10;;;;;;;0.60;0.60;;;3.40;99.90;;;;;;5076305;28;20224;-69
2024/02/03 09:00:35;;;;;;;0.70;0.70;;;3.50;99.90;;;;;;5076132;28;20192;-69
2024/02/03 09:03:01;;;;;;;0.60;0.60;;;3.50;99.90;;;;;;5077659;28;20180;-69
2024/02/03 09:05:26;;;;;;;0.80;0.80;;;3.60;99.90;;;;;;5096203;28;20682;-70
2024/02/03 09:07:52;;;;;;;0.65;0.65;;;3.60;99.90;;;;;;5078090;28;20569;-70
2024/02/03 09:10:18;;;;;;;0.60;0.60;;;3.80;99.90;;;;;;5096294;28;20206;-70
2024/02/03 09:12:44;;;;;;;0.60;0.60;;;3.70;99.90;;;;;;5096160;28;20192;-70
2024/02/03 09:15:09;;;;;;;0.60;0.60;;;3.70;99.90;;;;;;5096182;28;20199;-70
2024/02/03 09:17:35;;;;;;;0.60;0.60;;;3.70;99.90;;;;;;5095984;28;20561;-70
2024/02/03 09:20:01;;;;;;;0.70;0.70;;;3.80;99.90;;;;;;5096208;28;20584;-70
2024/02/03 09:22:26;;;;;;;0.70;0.70;;;3.80;99.90;;;;;;5095880;28;20196;-71
2024/02/03 09:24:52;;;;;;;0.60;0.60;;;3.80;99.90;;;;;;5095972;28;20196;-70
2024/02/03 09:27:18;;;;;;;0.75;0.75;;;3.90;99.90;;;;;;5095758;28;20648;-71
2024/02/03 09:29:44;;;;;;;0.68;0.68;;;4.10;99.90;;;;;;5096082;28;20267;-73
2024/02/03 09:32:10;;;;;;;0.68;0.68;;;4.20;99.90;;;;;;5095886;28;20197;-72
2024/02/03 09:34:36;;;;;;;1.00;1.00;;;4.30;99.90;;;;;;5077523;28;20626;-73
2024/02/03 09:37:03;;;;;;;0.60;0.60;;;4.40;99.90;;;;;;5077410;28;20193;-75
2024/02/03 09:39:29;;;;;;;0.60;0.60;;;4.50;99.90;;;;;;5095575;28;20215;-75
2024/02/03 09:41:56;;;;;;;0.60;0.60;;;4.70;99.90;;;;;;5095708;28;20743;-75
2024/02/03 09:44:21;;;;;;;0.70;0.70;;;5.10;99.90;;;;;;5076695;28;20210;-74
2024/02/03 09:46:49;;;;;;;0.60;0.60;;;5.30;99.90;;;;;;5095663;28;20676;-75
2024/02/03 09:49:14;;;;;;;0.60;0.60;;;5.40;99.90;;;;;;5095598;28;20275;-75
2024/02/03 09:51:40;;;;;;;0.60;0.60;;;5.60;99.90;;;;;;5095427;28;20287;-75
2024/02/03 09:54:06;;;;;;;0.60;0.60;;;5.60;99.90;;;;;;5095626;28;20200;-74
2024/02/03 09:56:32;;;;;;;0.60;0.60;;;5.40;99.90;;;;;;5095210;28;20208;-75
2024/02/03 09:58:58;;;;;;;0.70;0.70;;;5.40;99.90;;;;;;5095512;28;20698;-75
2024/02/03 10:01:23;;;;;;;0.65;0.65;;;5.30;99.90;;;;;;5095355;28;20197;-74
2024/02/03 10:03:56;;;;;;;0.60;0.60;;;5.20;99.90;;;;;;5095370;28;20184;-74
2024/02/03 10:06:22;;;;;;;0.52;0.52;;;5.30;99.90;;;;;;5094834;28;20266;-74
2024/02/03 10:08:54;;;;;;;0.70;0.70;;;5.20;99.90;;;;;;5095146;28;20194;-74
2024/02/03 10:11:20;;;;;;;0.60;0.60;;;5.00;99.90;;;;;;5077057;28;20196;-74
2024/02/03 10:14:00;;;;;;;0.60;0.60;;;5.00;99.90;;;;;;5095111;28;20185;-74
2024/02/03 10:16:26;;;;;;;0.52;0.52;;;5.20;99.90;;;;;;5095129;28;20689;-74
2024/02/03 10:18:52;;;;;;;0.70;0.70;;;5.60;99.90;;;;;;5094929;28;20204;-74
2024/02/03 10:21:18;;;;;;;0.50;0.50;;;5.90;99.90;;;;;;5094852;28;20209;-74
2024/02/03 10:23:51;;;;;;;0.52;0.52;;;6.00;99.90;;;;;;5094932;28;20718;-74
2024/02/03 10:26:17;;;;;;;0.50;0.50;;;6.20;99.90;;;;;;5094581;28;20185;-74
2024/02/03 10:28:43;;;;;;;0.50;0.50;;;6.40;99.90;;;;;;5094680;28;20482;-74
2024/02/03 10:31:09;;;;;;;0.68;0.68;;;6.60;99.90;;;;;;5094826;28;20559;-74
2024/02/03 10:33:35;;;;;;;0.73;0.73;;;6.80;99.90;;;;;;5094862;28;20275;-74
2024/02/03 10:36:02;;;;;;;0.52;0.52;;;6.90;99.90;;;;;;5094678;28;20560;-73
2024/02/03 10:38:28;;;;;;;0.50;0.50;;;7.00;99.90;;;;;;5094559;28;20199;-71
2024/02/03 10:40:56;;;;;;;0.60;0.60;;;7.20;99.90;;;;;;5094294;28;20694;-71
2024/02/03 10:43:24;;;;;;;1.02;1.02;;;7.50;99.90;;;;;;5094328;28;20203;-71
2024/02/03 10:45:57;;;;;;;0.80;0.80;;;7.50;99.90;;;;;;5094561;28;20196;-71
2024/02/03 10:48:25;;;;;;;0.70;0.70;;;7.50;99.90;;;;;;5094257;28;20225;-72
2024/02/03 10:51:07;;;;;;;0.80;0.80;;;7.40;99.90;;;;;;5094509;28;20566;-71
2024/02/03 10:53:37;;;;;;;0.70;0.70;;;7.70;99.90;;;;;;5094128;28;20222;-71
2024/02/03 10:56:08;;;;;;;0.60;0.60;;;7.90;99.90;;;;;;5094067;28;20257;-71
2024/02/03 10:58:34;;;;;;;0.57;0.57;;;8.00;99.90;;;;;;5094056;28;20659;-71
2024/02/03 11:01:23;;;;;;;0.50;0.50;;;8.00;99.90;;;;;;5094235;28;20225;-72
2024/02/03 11:03:49;;;;;;;0.57;0.57;;;7.80;99.90;;;;;;5094217;28;20200;-72
2024/02/03 11:06:29;;;;;;;0.70;0.70;;;7.90;99.90;;;;;;5094069;28;20192;-72
2024/02/03 11:09:14;;;;;;;0.63;0.63;;;8.00;99.90;;;;;;5094067;28;20192;-72
2024/02/03 11:11:44;;;;;;;0.60;0.60;;;7.70;99.90;;;;;;5093833;28;20646;-71
2024/02/03 11:14:17;;;;;;;0.70;0.70;;;7.70;99.90;;;;;;5075691;28;20242;-71
2024/02/03 11:16:51;;;;;;;0.50;0.50;;;7.80;99.90;;;;;;5093210;28;20188;-71
2024/02/03 11:19:16;;;;;;;0.70;0.70;;;7.70;99.90;;;;;;5093806;28;20232;-72
2024/02/03 11:21:43;;;;;;;0.80;0.80;;;7.80;99.90;;;;;;5093661;28;20696;-72
2024/02/03 11:24:10;;;;;;;0.70;0.70;;;8.00;99.90;;;;;;5093771;28;20283;-71
2024/02/03 11:26:37;;;;;;;0.70;0.70;;;8.00;99.90;;;;;;5093339;28;20181;-72
2024/02/03 11:29:03;;;;;;;0.80;0.80;;;8.00;99.90;;;;;;5093694;28;20279;-71
2024/02/03 11:31:30;;;;;;;0.68;0.68;;;7.90;99.90;;;;;;5093437;28;20203;-72
2024/02/03 11:33:57;;;;;;;0.70;0.70;;;8.10;99.90;;;;;;5075491;28;20294;-72
2024/02/03 11:36:24;;;;;;;0.70;0.70;;;7.90;99.90;;;;;;5093290;28;20196;-72
2024/02/03 11:38:50;;;;;;;0.60;0.60;;;8.00;99.90;;;;;;5073499;28;20652;-72
2024/02/03 11:41:16;;;;;;;0.80;0.80;;;8.10;99.90;;;;;;5073203;28;20256;-71
2024/02/03 11:43:46;;;;;;;0.65;0.65;;;8.10;99.90;;;;;;5073033;28;20314;-71
2024/02/03 11:46:12;;;;;;;0.60;0.60;;;8.10;99.90;;;;;;5072979;28;20275;-72
2024/02/03 11:48:39;;;;;;;0.73;0.73;;;8.20;99.90;;;;;;5072988;28;20311;-75
2024/02/03 11:51:09;;;;;;;0.60;0.60;;;8.20;99.90;;;;;;5073023;28;20204;-75
2024/02/03 11:53:34;;;;;;;0.60;0.60;;;8.10;99.90;;;;;;5089210;28;20279;-75
2024/02/03 11:56:00;;;;;;;0.70;0.70;;;8.10;99.90;;;;;;5093112;28;20317;-75
2024/02/03 11:58:26;;;;;;;0.70;0.70;;;7.90;99.90;;;;;;5092901;28;20204;-74
2024/02/03 12:01:07;;;;;;;0.70;0.70;;;7.60;99.90;;;;;;5093126;28;20203;-75
2024/02/03 12:03:35;;;;;;;0.80;0.80;;;7.60;99.90;;;;;;5092924;28;20188;-74
2024/02/03 12:06:02;;;;;;;0.65;0.65;;;7.80;99.90;;;;;;5074875;28;20204;-75
2024/02/03 12:08:28;;;;;;;0.70;0.70;;;7.90;99.90;;;;;;5092844;28;20203;-74
2024/02/03 12:10:54;;;;;;;0.55;0.55;;;8.00;99.90;;;;;;5092939;28;20275;-74
2024/02/03 12:13:19;;;;;;;0.65;0.65;;;8.00;99.90;;;;;;5092735;28;20200;-74
2024/02/03 12:15:45;;;;;;;0.70;0.70;;;7.70;99.90;;;;;;5092882;28;20196;-74
2024/02/03 12:18:11;;;;;;;0.70;0.70;;;7.70;99.90;;;;;;5092861;28;20203;-74
2024/02/03 12:20:38;;;;;;;0.60;0.60;;;7.40;99.90;;;;;;5092657;28;20196;-74
2024/02/03 12:23:04;;;;;;;0.60;0.60;;;7.20;99.90;;;;;;5092747;28;20230;-74
2024/02/03 12:25:30;;;;;;;0.60;0.60;;;7.20;99.90;;;;;;5074083;28;20558;-74
2024/02/03 12:27:56;;;;;;;0.60;0.60;;;7.30;99.90;;;;;;5091980;28;20275;-74
2024/02/03 12:30:22;;;;;;;0.70;0.70;;;7.10;99.90;;;;;;5092426;28;20688;-73
2024/02/03 12:32:48;;;;;;;0.70;0.70;;;7.10;99.90;;;;;;5091259;28;20271;-74
2024/02/03 12:35:15;;;;;;;0.70;0.70;;;7.10;99.90;;;;;;5072431;28;20231;-74
2024/02/03 12:37:41;;;;;;;0.65;0.65;;;7.10;99.90;;;;;;5072211;28;20199;-73
2024/02/03 12:40:10;;;;;;;0.70;0.70;;;7.20;99.90;;;;;;5072448;28;20310;-74
2024/02/03 12:42:37;;;;;;;0.70;0.70;;;7.10;99.90;;;;;;5054200;28;20203;-74
2024/02/03 12:45:06;;;;;;;0.60;0.60;;;7.00;99.90;;;;;;5054249;28;20719;-74
2024/02/03 12:47:33;;;;;;;0.70;0.70;;;7.00;99.90;;;;;;5072210;28;20195;-74
2024/02/03 12:49:59;;;;;;;0.70;0.70;;;6.90;99.90;;;;;;5090177;28;20200;-74
2024/02/03 12:52:25;;;;;;;0.60;0.60;;;6.90;99.90;;;;;;5092243;28;20798;-73
2024/02/03 12:54:51;;;;;;;0.63;0.63;;;6.80;99.90;;;;;;5092611;28;20229;-74
2024/02/03 12:57:17;;;;;;;0.80;0.80;;;6.80;99.90;;;;;;5092462;28;20559;-73